createdAt,value
2023-03-18T00:04:13.714Z,4.53
2023-03-18T00:09:15.925Z,4.70
2023-03-18T00:14:19.696Z,8.73
2023-03-18T00:19:22.095Z,4.77
2023-03-18T00:24:25.299Z,5.70
2023-03-18T00:29:27.496Z,4.57
2023-03-18T00:34:29.693Z,6.50
2023-03-18T00:39:33.286Z,8.40
2023-03-18T00:44:35.556Z,5.03
2023-03-18T00:49:38.149Z,7.13
2023-03-18T00:54:40.408Z,4.53
2023-03-18T01:00:01.524Z,5.73
2023-03-18T01:05:05.852Z,3.83
2023-03-18T01:10:09.467Z,4.70
2023-03-18T01:15:14.624Z,4.07
2023-03-18T01:20:19.746Z,6.67
2023-03-18T01:25:26.131Z,3.72
2023-03-18T01:30:31.097Z,2.90
2023-03-18T01:35:35.998Z,3.97
2023-03-18T01:40:41.037Z,3.13
2023-03-18T01:45:54.590Z,3.37
2023-03-18T01:51:01.032Z,3.30
2023-03-18T01:56:04.164Z,4.23
2023-03-18T02:01:33.820Z,3.67
2023-03-18T02:06:39.861Z,4.13
2023-03-18T02:11:45.085Z,3.77
2023-03-18T02:16:54.206Z,3.17
2023-03-18T02:22:14.039Z,4.03
2023-03-18T02:27:21.989Z,6.90
2023-03-18T02:32:29.550Z,4.90
2023-03-18T02:37:31.777Z,7.07
2023-03-18T02:42:34.914Z,4.33
2023-03-18T02:47:38.814Z,7.83
2023-03-18T02:52:41.085Z,5.83
2023-03-18T02:57:43.392Z,10.57
2023-03-18T03:02:45.771Z,6.30
2023-03-18T03:07:48.348Z,6.60
2023-03-18T03:12:51.714Z,8.20
2023-03-18T03:17:55.537Z,4.80
2023-03-18T03:22:58.209Z,10.33
2023-03-18T03:28:00.591Z,4.63
2023-03-18T03:33:02.985Z,7.20
2023-03-18T03:38:05.912Z,8.37
2023-03-18T03:43:08.168Z,10.43
2023-03-18T03:48:10.468Z,9.03
2023-03-18T03:53:12.734Z,7.77
2023-03-18T03:58:15.375Z,7.47
2023-03-18T04:03:18.977Z,11.27
2023-03-18T04:08:21.974Z,10.03
2023-03-18T04:13:24.983Z,7.23
2023-03-18T04:18:28.700Z,9.40
2023-03-18T04:23:33.339Z,5.50
2023-03-18T04:28:35.630Z,5.97
2023-03-18T04:33:40.090Z,4.97
2023-03-18T04:38:42.543Z,4.80
2023-03-18T04:43:45.814Z,6.30
2023-03-18T04:48:48.216Z,5.07
2023-03-18T04:53:50.976Z,9.43
2023-03-18T04:58:53.515Z,12.13
2023-03-18T05:04:02.193Z,10.80
2023-03-18T05:09:13.584Z,14.03
2023-03-18T05:14:17.610Z,12.33
2023-03-18T05:19:22.760Z,7.47
2023-03-18T05:24:33.516Z,16.93
2023-03-18T05:29:38.754Z,6.07
2023-03-18T05:34:47.734Z,5.07
2023-03-18T05:39:50.805Z,4.60
2023-03-18T05:44:56.845Z,3.50
2023-03-18T05:50:01.893Z,3.67
2023-03-18T05:55:06.415Z,3.03
2023-03-18T06:00:13.792Z,1.80
2023-03-18T06:05:21.406Z,2.17
2023-03-18T06:10:25.412Z,3.23
2023-03-18T06:15:28.238Z,1.37
2023-03-18T06:20:32.517Z,2.13
2023-03-18T06:25:35.255Z,5.90
2023-03-18T06:30:37.833Z,3.10
2023-03-18T06:35:40.894Z,3.53
2023-03-18T06:40:46.748Z,4.23
2023-03-18T06:45:49.265Z,6.50
2023-03-18T06:50:51.684Z,2.73
2023-03-18T06:56:02.578Z,2.87
2023-03-18T07:01:12.895Z,3.50
2023-03-18T07:06:19.512Z,2.97
2023-03-18T07:11:23.438Z,4.23
2023-03-18T07:16:30.947Z,4.63
2023-03-18T07:21:34.222Z,2.87
2023-03-18T07:26:38.684Z,2.17
2023-03-18T07:31:44.702Z,1.40
2023-03-18T07:36:47.186Z,2.23
2023-03-18T07:41:51.908Z,5.57
2023-03-18T07:47:00.361Z,6.80
2023-03-18T07:52:02.866Z,5.13
2023-03-18T07:57:05.650Z,6.93
2023-03-18T08:02:09.191Z,2.20
2023-03-18T08:07:11.864Z,3.27
2023-03-18T08:12:15.306Z,3.23
2023-03-18T08:17:19.226Z,2.80
2023-03-18T08:22:21.789Z,1.97
2023-03-18T08:27:25.473Z,4.07
2023-03-18T08:32:28.286Z,4.57
2023-03-18T08:37:30.738Z,3.93
2023-03-18T08:42:33.090Z,2.87
2023-03-18T08:47:35.463Z,2.93
2023-03-18T08:52:41.508Z,2.17
2023-03-18T08:57:43.785Z,2.37
2023-03-18T09:02:46.473Z,2.53
2023-03-18T09:07:48.694Z,2.57
2023-03-18T09:12:51.095Z,2.00
2023-03-18T09:18:09.971Z,3.03
2023-03-18T09:23:14.297Z,2.38
2023-03-18T09:28:16.928Z,2.60
2023-03-18T09:33:19.854Z,3.87
2023-03-18T09:38:22.778Z,3.80
2023-03-18T09:43:29.698Z,3.47
2023-03-18T09:48:44.468Z,1.77
2023-03-18T09:53:54.802Z,3.47
2023-03-18T09:59:07.641Z,2.70
2023-03-18T10:04:20.983Z,2.77
2023-03-18T10:09:34.675Z,3.73
2023-03-18T10:14:49.564Z,2.53
2023-03-18T10:20:04.161Z,1.90
2023-03-18T10:25:29.610Z,1.30
2023-03-18T10:30:53.455Z,2.07
2023-03-18T10:36:02.309Z,3.90
2023-03-18T10:41:17.815Z,3.60
2023-03-18T10:46:22.228Z,5.03
2023-03-18T10:51:40.413Z,3.50
2023-03-18T10:56:43.239Z,2.20
2023-03-18T11:01:47.786Z,3.10
2023-03-18T11:06:57.958Z,3.30
2023-03-18T11:12:26.012Z,1.33
2023-03-18T11:17:37.138Z,1.87
2023-03-18T11:22:45.333Z,3.10
2023-03-18T11:27:53.355Z,2.80
2023-03-18T11:33:04.441Z,2.77
2023-03-18T11:38:07.785Z,4.13
2023-03-18T11:43:20.575Z,3.87
2023-03-18T11:48:37.291Z,5.50
2023-03-18T11:53:47.220Z,1.90
2023-03-18T11:59:27.343Z,1.43
2023-03-18T12:04:45.903Z,2.93
2023-03-18T12:10:00.764Z,2.97
2023-03-18T12:15:22.075Z,3.83
2023-03-18T12:20:33.691Z,3.00
2023-03-18T12:26:10.691Z,3.23
2023-03-18T12:31:30.929Z,3.10
2023-03-18T12:36:50.457Z,3.73
2023-03-18T12:41:58.863Z,2.87
2023-03-18T12:47:16.929Z,2.60
2023-03-18T12:52:44.435Z,3.03
2023-03-18T12:57:50.779Z,2.77
2023-03-18T13:03:00.557Z,3.93
2023-03-18T13:08:36.953Z,3.10
2023-03-18T13:13:44.237Z,3.57
2023-03-18T13:18:51.925Z,4.53
2023-03-18T13:24:14.106Z,3.47
2023-03-18T13:29:45.154Z,3.23
2023-03-18T13:35:26.233Z,3.37
2023-03-18T13:40:39.967Z,20.63
2023-03-18T13:45:46.880Z,6.50
2023-03-18T13:50:51.709Z,18.50
2023-03-18T13:56:03.855Z,8.73
2023-03-18T14:01:28.888Z,7.57
2023-03-18T14:06:37.440Z,32.63
2023-03-18T14:11:50.604Z,13.67
2023-03-18T14:16:53.554Z,7.73
2023-03-18T14:22:07.796Z,2.50
2023-03-18T14:27:17.746Z,3.33
2023-03-18T14:32:23.411Z,1.80
2023-03-18T14:37:29.711Z,6.73
2023-03-18T14:42:37.427Z,3.87
2023-03-18T14:47:52.606Z,10.20
2023-03-18T14:53:21.027Z,6.30
2023-03-18T14:58:24.484Z,8.47
2023-03-18T15:03:31.527Z,6.70
2023-03-18T15:08:48.265Z,3.13
2023-03-18T15:13:54.893Z,3.40
2023-03-18T15:18:57.181Z,4.20
2023-03-18T15:24:04.957Z,5.57
2023-03-18T15:29:26.023Z,3.87
2023-03-18T15:34:31.089Z,4.73
2023-03-18T15:39:37.879Z,4.20
2023-03-18T15:44:40.900Z,5.20
2023-03-18T15:49:50.773Z,2.67
2023-03-18T15:54:53.756Z,2.87
2023-03-18T15:59:56.219Z,4.27
2023-03-18T16:05:20.947Z,1.87
2023-03-18T16:10:26.296Z,4.73
2023-03-18T16:15:30.024Z,6.07
2023-03-18T16:20:33.732Z,4.80
2023-03-18T16:25:37.090Z,7.87
2023-03-18T16:30:41.070Z,4.63
2023-03-18T16:35:44.161Z,2.60
2023-03-18T16:40:47.031Z,2.63
2023-03-18T16:45:51.049Z,5.13
2023-03-18T16:50:53.692Z,2.67
2023-03-18T16:55:59.998Z,2.33
2023-03-18T17:01:06.546Z,4.97
2023-03-18T17:06:10.141Z,5.83
2023-03-18T17:11:18.528Z,3.17
2023-03-18T17:16:21.401Z,6.80
2023-03-18T17:21:24.133Z,6.47
2023-03-18T17:26:28.907Z,10.23
2023-03-18T17:31:31.400Z,9.00
2023-03-18T17:36:33.896Z,11.73
2023-03-18T17:41:36.409Z,13.07
2023-03-18T17:46:38.971Z,13.20
2023-03-18T17:51:41.911Z,11.20
2023-03-18T17:56:44.860Z,15.93
2023-03-18T18:01:49.031Z,13.80
2023-03-18T18:06:51.810Z,14.57
2023-03-18T18:11:54.618Z,15.00
2023-03-18T18:16:57.288Z,13.37
2023-03-18T18:22:03.923Z,13.33
2023-03-18T18:27:06.583Z,15.47
2023-03-18T18:32:09.341Z,16.37
2023-03-18T18:37:12.292Z,14.07
2023-03-18T18:42:14.933Z,18.33
2023-03-18T18:47:20.821Z,23.50
2023-03-18T18:52:29.278Z,29.60
2023-03-18T18:57:32.487Z,25.13
2023-03-18T19:02:43.549Z,23.73
2023-03-18T19:07:46.826Z,15.43
2023-03-18T19:12:52.830Z,18.23
2023-03-18T19:17:55.507Z,16.07
2023-03-18T19:22:58.006Z,15.20
2023-03-18T19:28:01.005Z,13.33
2023-03-18T19:33:06.391Z,14.17
2023-03-18T19:38:16.490Z,8.53
2023-03-18T19:43:21.784Z,16.20
2023-03-18T19:48:25.202Z,8.70
2023-03-18T19:53:31.308Z,13.87
2023-03-18T19:58:33.758Z,13.80
2023-03-18T20:03:36.237Z,11.20
2023-03-18T20:08:41.270Z,10.40
2023-03-18T20:13:43.889Z,13.80
2023-03-18T20:18:46.555Z,16.57
2023-03-18T20:23:49.814Z,16.43
2023-03-18T20:28:55.829Z,14.27
2023-03-18T20:33:58.162Z,12.83
2023-03-18T20:39:04.330Z,8.50
2023-03-18T20:44:06.711Z,10.20
2023-03-18T20:49:09.807Z,12.67
2023-03-18T20:54:18.472Z,15.67
2023-03-18T20:59:21.102Z,9.15
2023-03-18T21:04:23.522Z,26.50
2023-03-18T21:09:25.948Z,14.30
2023-03-18T21:14:28.326Z,15.63
2023-03-18T21:19:30.714Z,13.63
2023-03-18T21:24:33.065Z,10.40
2023-03-18T21:29:35.422Z,13.87
2023-03-18T21:34:37.872Z,14.13
2023-03-18T21:39:41.760Z,11.20
2023-03-18T21:44:53.644Z,7.80
2023-03-18T21:49:55.932Z,6.43
2023-03-18T21:54:58.990Z,5.80
2023-03-18T22:00:01.543Z,9.53
2023-03-18T22:05:10.700Z,7.47
2023-03-18T22:10:21.670Z,7.30
2023-03-18T22:15:23.910Z,9.77
2023-03-18T22:20:26.794Z,9.43
2023-03-18T22:25:30.701Z,11.10
2023-03-18T22:30:33.918Z,7.17
2023-03-18T22:35:36.682Z,6.20
2023-03-18T22:40:40.053Z,9.00
2023-03-18T22:45:42.298Z,6.00
2023-03-18T22:50:44.685Z,5.97
2023-03-18T22:55:47.370Z,5.70
2023-03-18T23:00:50.302Z,6.27
2023-03-18T23:05:54.128Z,8.93
2023-03-18T23:10:57.710Z,8.17
2023-03-18T23:16:01.287Z,6.90
2023-03-18T23:21:04.166Z,4.10
2023-03-18T23:26:06.580Z,4.93
2023-03-18T23:31:09.596Z,4.10
2023-03-18T23:36:12.470Z,7.43
2023-03-18T23:41:15.002Z,5.37
2023-03-18T23:46:17.306Z,6.73
2023-03-18T23:51:19.671Z,5.90
2023-03-18T23:56:21.851Z,5.10
